Pagrindinis puslapis
METAR-TAF:

METAR-TAF

Oro uostai :

Kermanšahas, Iranas

platuma: 34-16N, ilguma: 047-07E, Aukštis: 1320 m

Dabartinis oras

Ataskaita buvo paskelbta 17 minutes, ne 12:30 UTC
Vėjas 12 kt iš Pietų/Pietvakarių
Temperatūra 18°C
Drėgmė 22%
Slėgis 1013 hPa
Matomumas 10 km arba daugiau
nėra debesų žemiau 1500 m ir nėra kamuolinių lietaus debesų

METAR: OICC 131230Z 20012KT CAVOK 18/M04 Q1013 A2991

Laikas: 17:17 (12:47 UTC)

Prognozė

Ataskaita buvo paskelbta 1 valandą ir 47 minutes, ne 11:00 UTC
Prognozė galioja nuo 13 metu 12 UTC su 13 metu 21 UTC
Vėjas 10 kt iš Pietų/Pietvakarių
Matomumas: 8000 m

TAF: OICC 131100Z 1312/1321 20010KT 8000 NSC

Orai ataskaitas ir orų prognozės (METAR, TAF).

turimą stotys yra geltonos ir raudonos taškus žemėlapyje.

Perkelti pele per norėdami pamatyti stoties vardą.

Tada spustelėkite, norėdami matyti oro stebėjimo ir prognozės.

Norėdami pakeisti žemėlapį: spustelėkite ant žalios mygtukų su juodo kryžiaus žemyn,; žalią mygtuką su brūkšneliu, jei norite nutolinti; arba žalių rodyklių gretimoms žemėlapius.


METAR-TAF: